createdAt,value
2022-11-07T00:01:22.057Z,3.43
2022-11-07T00:03:58.867Z,3.44
2022-11-07T00:06:32.557Z,3.44
2022-11-07T00:09:06.290Z,3.47
2022-11-07T00:11:39.728Z,3.49
2022-11-07T00:14:17.119Z,3.49
2022-11-07T00:16:52.112Z,3.49
2022-11-07T00:19:25.056Z,3.46
2022-11-07T00:21:58.480Z,3.43
2022-11-07T00:24:32.046Z,3.37
2022-11-07T00:27:05.484Z,3.29
2022-11-07T00:29:38.334Z,3.23
2022-11-07T00:32:11.901Z,3.17
2022-11-07T00:34:44.667Z,3.12
2022-11-07T00:37:18.628Z,3.05
2022-11-07T00:39:51.990Z,2.98
2022-11-07T00:42:24.753Z,2.93
2022-11-07T00:44:57.432Z,2.87
2022-11-07T00:47:30.295Z,2.85
2022-11-07T00:50:03.204Z,2.85
2022-11-07T00:52:37.649Z,2.85
2022-11-07T00:55:11.489Z,2.85
2022-11-07T00:57:44.984Z,2.84
2022-11-07T01:00:18.127Z,2.82
2022-11-07T01:02:52.735Z,2.80
2022-11-07T01:05:26.627Z,2.79
2022-11-07T01:07:59.801Z,2.80
2022-11-07T01:10:32.771Z,2.82
2022-11-07T01:13:05.710Z,2.86
2022-11-07T01:15:42.142Z,2.89
2022-11-07T01:18:16.030Z,2.94
2022-11-07T01:20:49.817Z,2.95
2022-11-07T01:23:23.122Z,2.97
2022-11-07T01:25:55.971Z,3.00
2022-11-07T01:28:29.162Z,3.04
2022-11-07T01:31:05.829Z,3.12
2022-11-07T01:33:40.666Z,3.17
2022-11-07T01:36:16.828Z,3.19
2022-11-07T01:38:51.163Z,3.20
2022-11-07T01:41:29.969Z,3.22
2022-11-07T01:44:16.272Z,3.26
2022-11-07T01:46:51.051Z,3.28
2022-11-07T01:49:28.012Z,3.33
2022-11-07T01:52:12.865Z,3.35
2022-11-07T01:55:02.522Z,3.35
2022-11-07T01:57:42.751Z,3.33
2022-11-07T02:00:19.478Z,3.29
2022-11-07T02:03:08.894Z,3.22
2022-11-07T02:05:45.709Z,3.18
2022-11-07T02:08:19.462Z,3.18
2022-11-07T02:10:52.987Z,3.16
2022-11-07T02:13:28.577Z,3.16
2022-11-07T02:16:06.202Z,3.16
2022-11-07T02:18:40.112Z,3.16
2022-11-07T02:21:20.257Z,3.17
2022-11-07T02:24:06.360Z,3.15
2022-11-07T02:26:40.517Z,3.14
2022-11-07T02:29:14.097Z,3.12
2022-11-07T02:31:47.284Z,3.08
2022-11-07T02:34:19.965Z,3.06
2022-11-07T02:36:52.871Z,3.03
2022-11-07T02:39:26.850Z,3.01
2022-11-07T02:42:00.519Z,3.00
2022-11-07T02:44:32.989Z,3.00
2022-11-07T02:47:05.817Z,3.00
2022-11-07T02:49:39.424Z,2.97
2022-11-07T02:52:12.999Z,2.98
2022-11-07T02:54:46.608Z,2.97
2022-11-07T02:57:19.428Z,2.98
2022-11-07T02:59:52.914Z,3.03
2022-11-07T03:02:27.037Z,3.07
2022-11-07T03:04:59.210Z,3.08
2022-11-07T03:07:31.914Z,3.09
2022-11-07T03:10:06.081Z,3.10
2022-11-07T03:12:39.933Z,3.07
2022-11-07T03:15:14.314Z,3.00
2022-11-07T03:17:47.103Z,2.93
2022-11-07T03:20:21.802Z,2.84
2022-11-07T03:22:54.572Z,2.80
2022-11-07T03:25:27.435Z,2.74
2022-11-07T03:28:00.352Z,2.69
2022-11-07T03:30:34.239Z,2.63
2022-11-07T03:33:08.654Z,2.60
2022-11-07T03:35:42.732Z,2.51
2022-11-07T03:38:15.903Z,2.44
2022-11-07T03:40:49.358Z,2.38
2022-11-07T03:43:22.106Z,2.33
2022-11-07T03:45:55.485Z,2.31
2022-11-07T03:48:28.455Z,2.27
2022-11-07T03:51:01.170Z,2.22
2022-11-07T03:53:34.347Z,2.15
2022-11-07T03:56:12.216Z,2.10
2022-11-07T03:58:45.126Z,2.06
2022-11-07T04:01:18.251Z,2.04
2022-11-07T04:03:55.280Z,2.01
2022-11-07T04:06:26.019Z,1.96
2022-11-07T04:08:59.209Z,1.92
2022-11-07T04:11:50.298Z,1.87
2022-11-07T04:14:41.141Z,1.82
2022-11-07T04:17:20.664Z,1.80
2022-11-07T04:19:56.252Z,1.80
2022-11-07T04:22:29.283Z,1.79
2022-11-07T04:25:02.959Z,1.78
2022-11-07T04:27:44.782Z,1.74
2022-11-07T04:30:20.048Z,1.73
2022-11-07T04:32:58.916Z,1.76
2022-11-07T04:35:34.598Z,1.78
2022-11-07T04:38:07.510Z,1.76
2022-11-07T04:40:41.163Z,1.74
2022-11-07T04:43:14.488Z,1.73
2022-11-07T04:45:48.031Z,1.73
2022-11-07T04:48:21.556Z,1.75
2022-11-07T04:50:54.238Z,1.77
2022-11-07T04:53:27.204Z,1.78
2022-11-07T04:56:00.136Z,1.79
2022-11-07T04:58:33.556Z,1.83
2022-11-07T05:01:06.675Z,1.86
2022-11-07T05:03:42.073Z,1.88
2022-11-07T05:06:16.740Z,1.90
2022-11-07T05:08:50.817Z,1.90
2022-11-07T05:11:23.685Z,1.91
2022-11-07T05:13:56.585Z,1.92
2022-11-07T05:16:33.796Z,1.92
2022-11-07T05:19:06.977Z,1.92
2022-11-07T05:21:41.026Z,1.94
2022-11-07T05:24:14.740Z,1.96
2022-11-07T05:26:47.519Z,2.02
2022-11-07T05:29:20.283Z,2.06
2022-11-07T05:31:53.423Z,2.08
2022-11-07T05:34:26.194Z,2.10
2022-11-07T05:36:59.312Z,2.10
2022-11-07T05:39:32.883Z,2.08
2022-11-07T05:42:06.202Z,2.11
2022-11-07T05:44:39.478Z,2.14
2022-11-07T05:47:12.315Z,2.17
2022-11-07T05:49:45.056Z,2.18
2022-11-07T05:52:17.869Z,2.19
2022-11-07T05:54:51.032Z,2.21
2022-11-07T05:57:23.918Z,2.21
2022-11-07T05:59:57.318Z,2.22
2022-11-07T06:02:30.138Z,2.24
2022-11-07T06:05:04.086Z,2.28
2022-11-07T06:07:41.495Z,2.32
2022-11-07T06:10:14.142Z,2.39
2022-11-07T06:12:51.392Z,2.43
2022-11-07T06:15:23.311Z,2.48
2022-11-07T06:17:57.091Z,2.53
2022-11-07T06:20:30.564Z,2.61
2022-11-07T06:23:06.818Z,2.69
2022-11-07T06:25:39.719Z,2.79
2022-11-07T06:28:15.273Z,2.85
2022-11-07T06:30:48.081Z,2.92
2022-11-07T06:33:21.680Z,2.96
2022-11-07T06:35:55.425Z,3.03
2022-11-07T06:38:28.745Z,3.11
2022-11-07T06:41:14.190Z,3.19
2022-11-07T06:43:47.239Z,3.28
2022-11-07T06:46:23.020Z,3.39
2022-11-07T06:48:57.234Z,3.48
2022-11-07T06:51:30.296Z,3.54
2022-11-07T06:54:03.165Z,3.58
2022-11-07T06:56:36.671Z,3.66
2022-11-07T06:59:09.985Z,3.77
2022-11-07T07:01:42.879Z,3.87
2022-11-07T07:04:15.856Z,3.95
2022-11-07T07:06:49.716Z,4.03
2022-11-07T07:09:22.999Z,4.12
2022-11-07T07:11:55.681Z,4.23
2022-11-07T07:14:29.685Z,4.32
2022-11-07T07:17:02.828Z,4.38
2022-11-07T07:19:35.933Z,4.44
2022-11-07T07:22:14.845Z,4.48
2022-11-07T07:24:49.244Z,4.54
2022-11-07T07:27:22.686Z,4.63
2022-11-07T07:29:56.250Z,4.68
2022-11-07T07:32:29.420Z,4.75
2022-11-07T07:35:03.524Z,4.82
2022-11-07T07:37:36.769Z,4.89
2022-11-07T07:40:11.093Z,4.95
2022-11-07T07:42:45.258Z,5.01
2022-11-07T07:45:18.795Z,5.04
2022-11-07T07:47:53.292Z,5.09
2022-11-07T07:50:27.058Z,5.12
2022-11-07T07:53:04.783Z,5.15
2022-11-07T07:55:35.011Z,5.20
2022-11-07T07:58:08.227Z,5.23
2022-11-07T08:00:41.631Z,5.23
2022-11-07T08:03:15.663Z,5.24
2022-11-07T08:05:55.356Z,5.23
2022-11-07T08:08:33.876Z,5.24
2022-11-07T08:11:07.710Z,5.25
2022-11-07T08:13:42.183Z,5.33
2022-11-07T08:16:14.810Z,5.40
2022-11-07T08:18:47.571Z,5.49
2022-11-07T08:21:21.249Z,5.55
2022-11-07T08:23:55.196Z,5.61
2022-11-07T08:26:28.223Z,5.66
2022-11-07T08:29:01.171Z,5.70
2022-11-07T08:31:34.110Z,5.75
2022-11-07T08:34:06.899Z,5.78
2022-11-07T08:36:40.110Z,5.83
2022-11-07T08:39:13.209Z,5.88
2022-11-07T08:41:46.183Z,5.93
2022-11-07T08:44:19.039Z,5.97
2022-11-07T08:46:52.644Z,6.01
2022-11-07T08:49:25.558Z,5.98
2022-11-07T08:51:58.672Z,5.96
2022-11-07T08:54:32.729Z,5.91
2022-11-07T08:57:05.575Z,5.90
2022-11-07T08:59:39.076Z,5.90
2022-11-07T09:02:57.339Z,5.92
2022-11-07T09:04:50.196Z,5.92
2022-11-07T09:07:24.405Z,5.94
2022-11-07T09:09:57.820Z,5.96
2022-11-07T09:12:30.524Z,5.97
2022-11-07T09:15:04.000Z,6.01
2022-11-07T09:17:37.453Z,6.00
2022-11-07T09:20:11.605Z,6.02
2022-11-07T09:22:45.301Z,6.09
2022-11-07T09:25:18.541Z,6.12
2022-11-07T09:27:53.901Z,6.18
2022-11-07T09:30:27.252Z,6.22
2022-11-07T09:33:00.604Z,6.24
2022-11-07T09:35:33.827Z,6.28
2022-11-07T09:38:07.278Z,6.34
2022-11-07T09:41:08.984Z,6.39
2022-11-07T09:44:07.959Z,6.44
2022-11-07T09:47:06.787Z,6.50
2022-11-07T09:49:45.986Z,6.53
2022-11-07T09:52:59.719Z,6.54
2022-11-07T09:55:54.758Z,6.54
2022-11-07T09:58:35.238Z,6.61
2022-11-07T10:01:12.951Z,6.68
2022-11-07T10:04:18.002Z,6.77
2022-11-07T10:06:34.507Z,6.85
2022-11-07T10:09:23.958Z,6.87
2022-11-07T10:12:24.024Z,6.91
2022-11-07T10:15:26.960Z,6.92
2022-11-07T10:18:23.965Z,6.91
2022-11-07T10:21:38.806Z,6.91
2022-11-07T10:24:34.478Z,6.92
2022-11-07T10:27:12.389Z,6.93
2022-11-07T10:29:53.987Z,6.95
2022-11-07T10:32:41.515Z,6.97
2022-11-07T10:35:26.217Z,7.00
2022-11-07T10:38:05.064Z,7.03
2022-11-07T10:40:41.783Z,7.08
2022-11-07T10:43:19.231Z,7.09
2022-11-07T10:45:53.913Z,7.12
2022-11-07T10:48:28.544Z,7.12
2022-11-07T10:51:02.912Z,7.08
2022-11-07T10:53:37.146Z,7.06
2022-11-07T10:56:12.692Z,7.02
2022-11-07T10:58:48.643Z,6.99
2022-11-07T11:01:27.738Z,6.95
2022-11-07T11:04:01.215Z,6.93
2022-11-07T11:06:34.509Z,6.89
2022-11-07T11:09:19.175Z,6.87
2022-11-07T11:11:54.180Z,6.87
2022-11-07T11:14:27.475Z,6.87
2022-11-07T11:17:01.099Z,6.87
2022-11-07T11:19:54.830Z,6.85
2022-11-07T11:22:30.610Z,6.82
2022-11-07T11:25:24.175Z,6.81
2022-11-07T11:28:07.771Z,6.77
2022-11-07T11:30:40.639Z,6.75
2022-11-07T11:33:24.191Z,6.73
2022-11-07T11:36:12.375Z,6.70
2022-11-07T11:38:56.535Z,6.71
2022-11-07T11:41:42.402Z,6.72
2022-11-07T11:44:45.566Z,6.72
2022-11-07T11:47:29.145Z,6.73
2022-11-07T11:50:08.421Z,6.70
2022-11-07T11:52:42.254Z,6.67
2022-11-07T11:55:18.256Z,6.66
2022-11-07T11:57:58.554Z,6.64
2022-11-07T12:00:35.034Z,6.64
2022-11-07T12:03:32.955Z,6.63
2022-11-07T12:06:43.254Z,6.65
2022-11-07T12:09:23.890Z,6.66
2022-11-07T12:12:35.620Z,6.66
2022-11-07T12:15:35.895Z,6.66
2022-11-07T12:18:42.112Z,6.63
2022-11-07T12:21:33.788Z,6.62
2022-11-07T12:24:35.671Z,6.60
2022-11-07T12:27:39.409Z,6.60
2022-11-07T12:30:28.962Z,6.60
2022-11-07T12:33:22.868Z,6.60
2022-11-07T12:36:08.951Z,6.59
2022-11-07T12:39:08.515Z,6.58
2022-11-07T12:42:09.435Z,6.55
2022-11-07T12:45:00.435Z,6.51
2022-11-07T12:48:02.296Z,6.48
2022-11-07T12:51:01.309Z,6.45
2022-11-07T12:54:16.217Z,6.42
2022-11-07T12:56:47.186Z,6.39
2022-11-07T12:59:29.628Z,6.33
2022-11-07T13:02:16.800Z,6.31
2022-11-07T13:05:03.497Z,6.26
2022-11-07T13:07:44.543Z,6.24
2022-11-07T13:10:27.949Z,6.19
2022-11-07T13:13:08.629Z,6.16
2022-11-07T13:16:13.737Z,6.14
2022-11-07T13:18:29.063Z,6.13
2022-11-07T13:21:05.131Z,6.11
2022-11-07T13:23:38.881Z,6.09
2022-11-07T13:26:32.873Z,6.06
2022-11-07T13:28:59.698Z,6.05
2022-11-07T13:31:41.060Z,5.99
2022-11-07T13:34:26.196Z,5.93
2022-11-07T13:37:02.849Z,5.86
2022-11-07T13:39:36.106Z,5.80
2022-11-07T13:42:12.365Z,5.73
2022-11-07T13:44:55.968Z,5.70
2022-11-07T13:47:36.197Z,5.67
2022-11-07T13:50:22.104Z,5.62
2022-11-07T13:53:02.245Z,5.58
2022-11-07T13:55:51.407Z,5.54
2022-11-07T13:58:24.808Z,5.49
2022-11-07T14:01:10.913Z,5.41
2022-11-07T14:03:44.066Z,5.34
2022-11-07T14:06:17.744Z,5.25
2022-11-07T14:08:51.285Z,5.20
2022-11-07T14:11:25.644Z,5.15
2022-11-07T14:13:58.390Z,5.10
2022-11-07T14:16:32.247Z,5.06
2022-11-07T14:19:08.891Z,5.00
2022-11-07T14:21:45.126Z,4.94
2022-11-07T14:24:28.122Z,4.87
2022-11-07T14:27:08.933Z,4.81
2022-11-07T14:29:57.458Z,4.75
2022-11-07T14:32:32.159Z,4.70
2022-11-07T14:35:09.255Z,4.66
2022-11-07T14:37:42.476Z,4.65
2022-11-07T14:40:15.512Z,4.61
2022-11-07T14:42:49.320Z,4.59
2022-11-07T14:45:56.583Z,4.54
2022-11-07T14:47:59.594Z,4.49
2022-11-07T14:50:33.265Z,4.43
2022-11-07T14:53:23.075Z,4.38
2022-11-07T14:56:00.095Z,4.35
2022-11-07T14:58:33.562Z,4.32
2022-11-07T15:01:14.129Z,4.28
2022-11-07T15:04:00.161Z,4.22
2022-11-07T15:06:36.170Z,4.15
2022-11-07T15:09:11.550Z,4.06
2022-11-07T15:11:52.390Z,3.97
2022-11-07T15:14:37.925Z,3.92
2022-11-07T15:17:23.810Z,3.88
2022-11-07T15:20:07.271Z,3.85
2022-11-07T15:22:42.163Z,3.80
2022-11-07T15:25:40.233Z,3.76
2022-11-07T15:28:26.752Z,3.71
2022-11-07T15:31:01.883Z,3.66
2022-11-07T15:33:39.148Z,3.63
2022-11-07T15:36:12.282Z,3.63
2022-11-07T15:38:45.791Z,3.63
2022-11-07T15:41:19.076Z,3.62
2022-11-07T15:43:51.947Z,3.61
2022-11-07T15:46:37.523Z,3.57
2022-11-07T15:49:12.609Z,3.56
2022-11-07T15:51:45.496Z,3.51
2022-11-07T15:54:19.068Z,3.50
2022-11-07T15:56:57.333Z,3.50
2022-11-07T15:59:32.113Z,3.50
2022-11-07T16:02:05.970Z,3.51
2022-11-07T16:04:39.909Z,3.50
2022-11-07T16:07:21.058Z,3.48
2022-11-07T16:09:54.714Z,3.47
2022-11-07T16:12:27.780Z,3.44
2022-11-07T16:15:00.852Z,3.40
2022-11-07T16:17:34.598Z,3.38
2022-11-07T16:20:11.607Z,3.35
2022-11-07T16:22:46.118Z,3.32
2022-11-07T16:25:22.715Z,3.27
2022-11-07T16:28:00.643Z,3.23
2022-11-07T16:30:34.763Z,3.19
2022-11-07T16:33:07.490Z,3.18
2022-11-07T16:35:40.554Z,3.18
2022-11-07T16:38:19.322Z,3.19
2022-11-07T16:40:53.117Z,3.18
2022-11-07T16:43:26.826Z,3.16
2022-11-07T16:45:59.827Z,3.15
2022-11-07T16:48:33.960Z,3.15
2022-11-07T16:51:06.890Z,3.15
2022-11-07T16:53:40.430Z,3.15
2022-11-07T16:56:26.931Z,3.15
2022-11-07T16:59:01.877Z,3.13
2022-11-07T17:01:36.652Z,3.10
2022-11-07T17:04:10.030Z,3.08
2022-11-07T17:06:45.997Z,3.05
2022-11-07T17:09:22.127Z,3.02
2022-11-07T17:11:55.492Z,2.99
2022-11-07T17:14:28.595Z,2.97
2022-11-07T17:17:01.325Z,2.95
2022-11-07T17:19:34.760Z,2.94
2022-11-07T17:22:08.793Z,2.91
2022-11-07T17:24:43.262Z,2.87
2022-11-07T17:27:26.984Z,2.84
2022-11-07T17:30:03.348Z,2.79
2022-11-07T17:32:37.163Z,2.78
2022-11-07T17:35:31.294Z,2.74
2022-11-07T17:37:46.621Z,2.71
2022-11-07T17:40:22.744Z,2.68
2022-11-07T17:42:57.131Z,2.64
2022-11-07T17:45:30.521Z,2.58
2022-11-07T17:48:03.652Z,2.53
2022-11-07T17:50:38.800Z,2.50
2022-11-07T17:53:11.705Z,2.48
2022-11-07T17:55:44.563Z,2.49
2022-11-07T17:58:18.959Z,2.49
2022-11-07T18:00:52.542Z,2.48
2022-11-07T18:03:26.287Z,2.47
2022-11-07T18:06:01.066Z,2.44
2022-11-07T18:08:51.360Z,2.41
2022-11-07T18:11:09.846Z,2.39
2022-11-07T18:13:43.346Z,2.35
2022-11-07T18:16:22.289Z,2.35
2022-11-07T18:18:55.708Z,2.34
2022-11-07T18:21:29.643Z,2.32
2022-11-07T18:24:02.557Z,2.30
2022-11-07T18:26:37.222Z,2.25
2022-11-07T18:29:13.666Z,2.17
2022-11-07T18:31:49.944Z,2.13
2022-11-07T18:34:23.226Z,2.12
2022-11-07T18:36:56.224Z,2.12
2022-11-07T18:39:29.349Z,2.09
2022-11-07T18:42:02.502Z,2.08
2022-11-07T18:44:35.672Z,2.04
2022-11-07T18:47:09.517Z,1.98
2022-11-07T18:49:42.504Z,1.95
2022-11-07T18:52:16.552Z,1.92
2022-11-07T18:54:49.605Z,1.88
2022-11-07T18:57:22.652Z,1.88
2022-11-07T18:59:56.309Z,1.88
2022-11-07T19:02:31.661Z,1.84
2022-11-07T19:05:06.118Z,1.79
2022-11-07T19:07:41.461Z,1.73
2022-11-07T19:10:16.300Z,1.69
2022-11-07T19:12:49.510Z,1.69
2022-11-07T19:15:24.315Z,1.69
2022-11-07T19:17:57.857Z,1.68
2022-11-07T19:20:31.627Z,1.67
2022-11-07T19:23:04.580Z,1.62
2022-11-07T19:25:43.199Z,1.57
2022-11-07T19:28:16.458Z,1.53
2022-11-07T19:30:50.042Z,1.56
2022-11-07T19:33:23.334Z,1.59
2022-11-07T19:36:06.047Z,1.65
2022-11-07T19:38:39.001Z,1.68
2022-11-07T19:41:14.227Z,1.72
2022-11-07T19:43:50.323Z,1.77
2022-11-07T19:46:25.015Z,1.82
2022-11-07T19:48:57.298Z,1.91
2022-11-07T19:51:29.941Z,1.98
2022-11-07T19:54:03.977Z,2.05
2022-11-07T19:56:39.114Z,2.12
2022-11-07T19:59:12.671Z,2.18
2022-11-07T20:01:58.749Z,2.20
2022-11-07T20:04:20.705Z,2.22
2022-11-07T20:06:55.273Z,2.26
2022-11-07T20:09:28.006Z,2.31
2022-11-07T20:12:01.347Z,2.38
2022-11-07T20:14:35.199Z,2.45
2022-11-07T20:17:08.888Z,2.49
2022-11-07T20:19:42.646Z,2.52
2022-11-07T20:22:15.660Z,2.56
2022-11-07T20:24:48.633Z,2.59
2022-11-07T20:27:21.499Z,2.58
2022-11-07T20:29:54.151Z,2.58
2022-11-07T20:32:28.168Z,2.59
2022-11-07T20:35:02.287Z,2.61
2022-11-07T20:37:36.517Z,2.64
2022-11-07T20:40:11.161Z,2.69
2022-11-07T20:42:44.231Z,2.74
2022-11-07T20:45:17.067Z,2.80
2022-11-07T20:47:51.646Z,2.85
2022-11-07T20:50:25.858Z,2.88
2022-11-07T20:53:00.085Z,2.88
2022-11-07T20:55:35.815Z,2.85
2022-11-07T20:58:08.744Z,2.84
2022-11-07T21:00:42.861Z,2.87
2022-11-07T21:03:15.974Z,2.89
2022-11-07T21:05:54.508Z,2.94
2022-11-07T21:08:28.903Z,2.98
2022-11-07T21:11:01.723Z,3.04
2022-11-07T21:13:35.468Z,3.08
2022-11-07T21:16:10.099Z,3.06
2022-11-07T21:18:43.352Z,3.05
2022-11-07T21:21:20.523Z,3.04
2022-11-07T21:23:54.107Z,3.02
2022-11-07T21:26:34.492Z,3.03
2022-11-07T21:29:11.216Z,3.00
2022-11-07T21:31:45.225Z,2.99
2022-11-07T21:34:18.846Z,2.97
2022-11-07T21:36:51.763Z,2.95
2022-11-07T21:39:24.777Z,2.95
2022-11-07T21:41:58.455Z,2.97
2022-11-07T21:44:31.608Z,3.00
2022-11-07T21:47:04.535Z,3.05
2022-11-07T21:49:37.504Z,3.06
2022-11-07T21:52:11.692Z,3.06
2022-11-07T21:54:45.453Z,3.06
2022-11-07T21:57:19.610Z,3.05
2022-11-07T21:59:52.666Z,3.02
2022-11-07T22:02:25.597Z,2.98
2022-11-07T22:04:58.716Z,2.97
2022-11-07T22:07:34.966Z,2.95
2022-11-07T22:10:09.710Z,2.94
2022-11-07T22:12:43.280Z,2.93
2022-11-07T22:15:16.253Z,2.94
2022-11-07T22:17:49.784Z,2.96
2022-11-07T22:20:22.626Z,2.97
2022-11-07T22:22:55.702Z,2.95
2022-11-07T22:25:28.504Z,2.91
2022-11-07T22:28:01.396Z,2.86
2022-11-07T22:30:34.912Z,2.83
2022-11-07T22:33:08.428Z,2.81
2022-11-07T22:35:41.695Z,2.84
2022-11-07T22:38:14.482Z,2.87
2022-11-07T22:40:48.537Z,2.90
2022-11-07T22:43:21.259Z,2.93
2022-11-07T22:45:54.403Z,2.95
2022-11-07T22:48:27.451Z,2.95
2022-11-07T22:51:05.679Z,2.97
2022-11-07T22:53:40.395Z,2.98
2022-11-07T22:56:19.075Z,3.00
2022-11-07T22:58:52.094Z,3.03
2022-11-07T23:01:34.058Z,3.04
2022-11-07T23:04:07.922Z,3.05
2022-11-07T23:06:41.399Z,3.04
2022-11-07T23:09:17.330Z,2.99
2022-11-07T23:11:50.376Z,2.94
2022-11-07T23:14:25.289Z,2.91
2022-11-07T23:16:57.945Z,2.89
2022-11-07T23:19:30.841Z,2.88
2022-11-07T23:22:03.771Z,2.92
2022-11-07T23:24:38.577Z,2.96
2022-11-07T23:27:11.648Z,2.96
2022-11-07T23:29:45.490Z,2.95
2022-11-07T23:32:18.549Z,2.94
2022-11-07T23:34:54.510Z,2.95
2022-11-07T23:37:27.228Z,2.99
2022-11-07T23:40:00.294Z,2.99
2022-11-07T23:42:33.687Z,3.02
2022-11-07T23:45:24.879Z,3.02
2022-11-07T23:48:19.179Z,2.98
2022-11-07T23:51:03.649Z,2.96
2022-11-07T23:53:56.003Z,2.97
2022-11-07T23:56:30.264Z,2.98
2022-11-07T23:59:20.926Z,3.00
